Řízení letového provozu České republiky
Letiste: LKMT Aktualizace: 28.06.2017 05:06:13  UTC
 METAR LKMT 28.06. 05:00 ...
METAR LKMT 280500Z VRB02KT 7000 NSC 19/17 Q1005 NOSIG RMK REG QNH 1002=
 TAF LKMT 27.06. 23:00 AAB
TAF AMD LKMT 280330Z 2804/2906 VRB02KT CAVOK      TEMPO 2804/2807 4000 BR NSC      PROB30 TEMPO 2804/2805 1200 MIFG BKN002      BECMG 2807/2809 19010KT      TEMPO 2810/2823 20018G38KT      PROB40 TEMPO 2816/2821 3000 TSRA BKN020CB      PROB30 TEMPO 2821/2902 SHRA SCT035TCU=